Terminal Aerodrome Forecast
Issued by NWS

Home | Current Version | Previous Version | Text Only | Print | Product List | Glossary On
Versions: 1 2 3 4 5 6 7 8 9 10 11 12 13 14 15 16 17 18 19 20 21 22 23 24
000
FTUS43 KLOT 201458 AAA
TAFORD
TAF AMD
KORD 201458Z 2015/2118 20009KT P6SM SKC
     FM201700 19011G17KT P6SM FEW250
     FM210000 18008KT P6SM FEW150 BKN250
     FM211600 18012G18KT P6SM FEW100 BKN150=

USA.gov is the U.S. government's official web portal to all federal, state and local government web resources and services.